Terminal Aerodrome Forecast
Issued by NWS Paducah, KY

Home | Current Version | Previous Version | Text Only | Print | Product List | Glossary On
Versions: 1 2 3 4 5 6 7 8 9 10 11 12 13 14 15 16 17 18 19 20 21 22 23
963
FTUS43 KPAH 222211 AAB
TAFEVV
TAF AMD
KEVV 222211Z 2222/2318 19006KT P6SM SKC
     FM230300 20003KT 6SM BR SCT200
     FM231400 20007KT P6SM BKN020=

USA.gov is the U.S. government's official web portal to all federal, state and local government web resources and services.